createdAt,value
2016-04-11T10:07:49.972Z,10.55
2016-04-11T10:08:58.005Z,10.7
2016-04-11T10:10:04.524Z,10.75
2016-04-11T10:11:02.386Z,10.97
2016-04-11T10:12:08.873Z,11.13
2016-04-11T10:12:50.141Z,11.27
2016-04-11T10:13:50.722Z,11.26
2016-04-11T10:14:51.583Z,11.28
2016-04-11T10:15:51.493Z,11.27
2016-04-11T10:16:51.292Z,11.34
2016-04-11T10:17:51.263Z,11.28
2016-04-11T21:32:57.323Z,7.51
2016-04-11T21:33:46.497Z,7.47
2016-04-11T21:34:45.530Z,7.45
2016-04-11T21:35:44.970Z,7.36
2016-04-11T21:36:55.222Z,7.36
2016-04-11T21:37:48.289Z,7.26
2016-04-11T21:38:56.463Z,7.23
2016-04-11T21:39:47.435Z,7.19
2016-04-11T21:40:44.983Z,7.13
2016-04-11T21:41:48.503Z,6.97
2016-04-11T21:42:44.864Z,7
2016-04-11T21:43:46.913Z,6.9
2016-04-11T21:44:45.104Z,6.82
2016-04-11T21:45:47.889Z,6.83
2016-04-11T21:46:45.094Z,6.72
2016-04-11T21:47:44.643Z,6.7
2016-04-11T21:49:48.304Z,6.68
2016-04-11T21:50:45.043Z,6.67
2016-04-11T21:51:44.763Z,6.7
2016-04-11T21:52:46.141Z,6.64
2016-04-11T21:53:46.597Z,6.73
2016-04-11T21:55:48.040Z,6.8
2016-04-11T21:56:58.401Z,6.85
2016-04-11T21:57:48.295Z,6.95
2016-04-11T21:58:57.579Z,6.94
2016-04-11T21:59:47.145Z,6.95
2016-04-11T22:00:48.194Z,7.01
2016-04-11T22:01:48.056Z,7.01
2016-04-11T22:02:48.200Z,7.08
2016-04-11T22:03:48.374Z,7.03
2016-04-11T22:04:48.252Z,7.04
2016-04-11T22:05:48.098Z,7
2016-04-11T22:07:45.214Z,7.03
2016-04-11T22:08:47.419Z,7.05
2016-04-11T22:09:47.703Z,7.03
2016-04-11T22:10:47.284Z,6.98
2016-04-11T22:12:47.586Z,7.05
2016-04-11T22:13:47.791Z,7.04
2016-04-11T22:14:47.513Z,7.05
2016-04-11T22:15:47.674Z,7.04
2016-04-11T22:16:47.270Z,6.98
2016-04-11T22:17:47.325Z,6.9
2016-04-11T22:18:47.390Z,6.83
2016-04-11T22:19:47.268Z,6.79
2016-04-11T22:20:47.172Z,6.7
